sensor_id;sensor_type;location;lat;lon;timestamp;pressure;altitude;pressure_sealevel;temperature;humidity
63946;BME280;50122;56.330;43.838;2022-10-16T16:23:15;102213.09;;;4.73;77.06
63946;BME280;50122;56.330;43.838;2022-10-16T16:25:42;102226.25;;;4.79;78.23
63946;BME280;50122;56.330;43.838;2022-10-16T16:28:09;102216.66;;;4.78;79.48
63946;BME280;50122;56.330;43.838;2022-10-16T16:30:42;102220.19;;;4.83;80.36
63946;BME280;50122;56.330;43.838;2022-10-16T16:33:17;102226.41;;;4.90;81.28
63946;BME280;50122;56.330;43.838;2022-10-16T16:35:43;102223.81;;;4.96;81.91
63946;BME280;50122;56.330;43.838;2022-10-16T16:38:10;102218.59;;;4.98;82.14
63946;BME280;50122;56.330;43.838;2022-10-16T16:40:37;102230.00;;;5.01;82.35
63946;BME280;50122;56.330;43.838;2022-10-16T16:43:04;102199.28;;;4.88;82.41
63946;BME280;50122;56.330;43.838;2022-10-16T16:45:30;102219.50;;;4.98;82.38
63946;BME280;50122;56.330;43.838;2022-10-16T16:47:58;102219.53;;;5.03;82.58
63946;BME280;50122;56.330;43.838;2022-10-16T16:50:24;102228.28;;;5.03;82.29
63946;BME280;50122;56.330;43.838;2022-10-16T16:52:51;102227.41;;;5.04;82.67
63946;BME280;50122;56.330;43.838;2022-10-16T16:55:18;102219.53;;;5.03;82.59
63946;BME280;50122;56.330;43.838;2022-10-16T16:57:47;102217.81;;;5.05;82.64
63946;BME280;50122;56.330;43.838;2022-10-16T17:00:14;102227.41;;;5.04;82.55
63946;BME280;50122;56.330;43.838;2022-10-16T17:02:49;102228.28;;;5.03;82.48
63946;BME280;50122;56.330;43.838;2022-10-16T17:05:17;102212.38;;;4.90;82.41
63946;BME280;50122;56.330;43.838;2022-10-16T17:07:44;102219.50;;;5.00;82.27
63946;BME280;50122;56.330;43.838;2022-10-16T17:10:10;102215.13;;;4.99;82.35
63946;BME280;50122;56.330;43.838;2022-10-16T17:12:37;102230.88;;;5.00;82.31
63946;BME280;50122;56.330;43.838;2022-10-16T17:15:07;102220.31;;;4.94;82.02
63946;BME280;50122;56.330;43.838;2022-10-16T17:17:34;102226.47;;;4.98;82.02
63946;BME280;50122;56.330;43.838;2022-10-16T17:20:00;102223.78;;;4.92;82.23
63946;BME280;50122;56.330;43.838;2022-10-16T17:22:28;102224.66;;;4.94;82.29
63946;BME280;50122;56.330;43.838;2022-10-16T17:24:55;102220.25;;;4.88;82.23
63946;BME280;50122;56.330;43.838;2022-10-16T17:27:22;102231.63;;;4.90;82.18
63946;BME280;50122;56.330;43.838;2022-10-16T17:29:50;102214.91;;;4.80;82.19
63946;BME280;50122;56.330;43.838;2022-10-16T17:32:17;102237.69;;;4.84;82.43
63946;BME280;50122;56.330;43.838;2022-10-16T17:34:46;102235.94;;;4.86;82.21
63946;BME280;50122;56.330;43.838;2022-10-16T17:37:14;102229.78;;;4.80;82.50
63946;BME280;50122;56.330;43.838;2022-10-16T17:39:43;102224.50;;;4.77;82.42
63946;BME280;50122;56.330;43.838;2022-10-16T17:42:10;102236.69;;;4.76;82.50
63946;BME280;50122;56.330;43.838;2022-10-16T17:44:37;102228.78;;;4.70;82.69
63946;BME280;50122;56.330;43.838;2022-10-16T17:47:04;102219.94;;;4.60;82.56
63946;BME280;50122;56.330;43.838;2022-10-16T17:49:36;102238.31;;;4.65;82.57
63946;BME280;50122;56.330;43.838;2022-10-16T17:52:05;102225.97;;;4.55;82.43
63946;BME280;50122;56.330;43.838;2022-10-16T17:54:31;102239.88;;;4.50;82.71
63946;BME280;50122;56.330;43.838;2022-10-16T17:56:58;102232.09;;;4.54;82.84
63946;BME280;50122;56.330;43.838;2022-10-16T17:59:25;102239.91;;;4.52;82.77
63946;BME280;50122;56.330;43.838;2022-10-16T18:01:52;102206.47;;;4.29;82.79
63946;BME280;50122;56.330;43.838;2022-10-16T18:04:21;102238.97;;;4.47;82.60
63946;BME280;50122;56.330;43.838;2022-10-16T18:06:47;102237.19;;;4.44;83.11
63946;BME280;50122;56.330;43.838;2022-10-16T18:09:16;102239.78;;;4.43;82.68
63946;BME280;50122;56.330;43.838;2022-10-16T18:11:44;102229.22;;;4.33;82.69
63946;BME280;50122;56.330;43.838;2022-10-16T18:14:13;102232.78;;;4.40;82.96
63946;BME280;50122;56.330;43.838;2022-10-16T18:16:42;102238.97;;;4.45;82.92
63946;BME280;50122;56.330;43.838;2022-10-16T18:19:27;102235.53;;;4.51;82.89
63946;BME280;50122;56.330;43.838;2022-10-16T18:21:56;102232.03;;;4.50;83.02
63946;BME280;50122;56.330;43.838;2022-10-16T18:24:26;102226.91;;;4.60;82.93
63946;BME280;50122;56.330;43.838;2022-10-16T18:26:54;102224.31;;;4.60;82.82
63946;BME280;50122;56.330;43.838;2022-10-16T18:29:25;102232.16;;;4.60;82.72
63946;BME280;50122;56.330;43.838;2022-10-16T18:31:52;102237.41;;;4.60;82.25
63946;BME280;50122;56.330;43.838;2022-10-16T18:34:22;102226.09;;;4.64;82.33
63946;BME280;50122;56.330;43.838;2022-10-16T18:36:59;102241.91;;;4.73;82.28
63946;BME280;50122;56.330;43.838;2022-10-16T18:39:26;102233.16;;;4.71;82.25
63946;BME280;50122;56.330;43.838;2022-10-16T18:41:59;102226.94;;;4.63;81.73
63946;BME280;50122;56.330;43.838;2022-10-16T18:44:27;102236.50;;;4.59;81.89
63946;BME280;50122;56.330;43.838;2022-10-16T18:46:59;102242.50;;;4.52;81.64
63946;BME280;50122;56.330;43.838;2022-10-16T18:49:27;102228.38;;;4.38;81.68
63946;BME280;50122;56.330;43.838;2022-10-16T18:51:55;102243.25;;;4.40;81.57
63946;BME280;50122;56.330;43.838;2022-10-16T18:54:23;102229.13;;;4.29;81.79
63946;BME280;50122;56.330;43.838;2022-10-16T18:56:51;102240.47;;;4.28;81.89
63946;BME280;50122;56.330;43.838;2022-10-16T18:59:18;102241.31;;;4.25;82.10
63946;BME280;50122;56.330;43.838;2022-10-16T19:01:45;102240.47;;;4.28;82.08
63946;BME280;50122;56.330;43.838;2022-10-16T19:04:15;102244.94;;;4.35;82.38
63946;BME280;50122;56.330;43.838;2022-10-16T19:06:46;102232.78;;;4.42;82.12
63946;BME280;50122;56.330;43.838;2022-10-16T19:09:15;102233.72;;;4.44;82.34
63946;BME280;50122;56.330;43.838;2022-10-16T19:11:43;102227.56;;;4.42;82.01
63946;BME280;50122;56.330;43.838;2022-10-16T19:14:11;102222.31;;;4.40;81.73
63946;BME280;50122;56.330;43.838;2022-10-16T19:16:38;102234.56;;;4.43;81.81
63946;BME280;50122;56.330;43.838;2022-10-16T19:19:18;102229.22;;;4.35;81.57
63946;BME280;50122;56.330;43.838;2022-10-16T19:21:47;102233.66;;;4.41;81.96
63946;BME280;50122;56.330;43.838;2022-10-16T19:24:16;102225.81;;;4.41;81.60
63946;BME280;50122;56.330;43.838;2022-10-16T19:26:43;102231.91;;;4.40;81.20
63946;BME280;50122;56.330;43.838;2022-10-16T19:29:10;102227.47;;;4.34;81.20
63946;BME280;50122;56.330;43.838;2022-10-16T19:31:38;102216.06;;;4.30;81.10
63946;BME280;50122;56.330;43.838;2022-10-16T19:34:08;102231.88;;;4.38;81.08
63946;BME280;50122;56.330;43.838;2022-10-16T19:36:42;102236.16;;;4.33;81.27
63946;BME280;50122;56.330;43.838;2022-10-16T19:39:13;102231.69;;;4.24;81.19
63946;BME280;50122;56.330;43.838;2022-10-16T19:41:40;102246.63;;;4.31;82.05
63946;BME280;50122;56.330;43.838;2022-10-16T19:44:09;102230.81;;;4.22;81.18
63946;BME280;50122;56.330;43.838;2022-10-16T19:46:37;102240.38;;;4.23;80.87
63946;BME280;50122;56.330;43.838;2022-10-16T19:49:06;102244.69;;;4.16;81.11
63946;BME280;50122;56.330;43.838;2022-10-16T19:51:34;102249.81;;;4.09;81.14
63946;BME280;50122;56.330;43.838;2022-10-16T19:54:06;102240.91;;;3.96;81.16
63946;BME280;50122;56.330;43.838;2022-10-16T19:56:34;102246.06;;;3.93;81.72
63946;BME280;50122;56.330;43.838;2022-10-16T19:59:01;102248.59;;;3.87;81.82
63946;BME280;50122;56.330;43.838;2022-10-16T20:01:29;102262.56;;;3.87;81.77
63946;BME280;50122;56.330;43.838;2022-10-16T20:03:57;102261.63;;;3.83;81.80
63946;BME280;50122;56.330;43.838;2022-10-16T20:06:24;102236.91;;;3.63;82.11
63946;BME280;50122;56.330;43.838;2022-10-16T20:08:52;102259.75;;;3.75;81.70
63946;BME280;50122;56.330;43.838;2022-10-16T20:11:22;102261.41;;;3.71;82.10
63946;BME280;50122;56.330;43.838;2022-10-16T20:13:49;102264.00;;;3.70;82.42
63946;BME280;50122;56.330;43.838;2022-10-16T20:16:17;102260.44;;;3.63;82.15
63946;BME280;50122;56.330;43.838;2022-10-16T20:18:48;102263.03;;;3.61;82.12
63946;BME280;50122;56.330;43.838;2022-10-16T20:21:28;102263.00;;;3.60;82.60
63946;BME280;50122;56.330;43.838;2022-10-16T20:24:00;102264.66;;;3.56;82.70
63946;BME280;50122;56.330;43.838;2022-10-16T20:26:26;102264.66;;;3.56;82.26
63946;BME280;50122;56.330;43.838;2022-10-16T20:28:53;102265.47;;;3.54;82.52
63946;BME280;50122;56.330;43.838;2022-10-16T20:31:24;102254.03;;;3.45;82.69
63946;BME280;50122;56.330;43.838;2022-10-16T20:33:52;102252.25;;;3.43;82.55
63946;BME280;50122;56.330;43.838;2022-10-16T20:36:20;102263.63;;;3.46;83.01
63946;BME280;50122;56.330;43.838;2022-10-16T20:38:49;102261.84;;;3.44;82.61
63946;BME280;50122;56.330;43.838;2022-10-16T20:41:16;102255.63;;;3.37;83.20
63946;BME280;50122;56.330;43.838;2022-10-16T20:43:46;102270.53;;;3.41;82.93
63946;BME280;50122;56.330;43.838;2022-10-16T20:46:16;102269.63;;;3.41;83.09
63946;BME280;50122;56.330;43.838;2022-10-16T20:48:43;102269.56;;;3.38;83.17
63946;BME280;50122;56.330;43.838;2022-10-16T20:51:15;102264.25;;;3.33;83.31
63946;BME280;50122;56.330;43.838;2022-10-16T20:53:43;102253.75;;;3.28;83.37
63946;BME280;50122;56.330;43.838;2022-10-16T20:56:13;102254.56;;;3.26;83.44
63946;BME280;50122;56.330;43.838;2022-10-16T20:58:41;102265.06;;;3.29;83.40
63946;BME280;50122;56.330;43.838;2022-10-16T21:01:10;102265.00;;;3.26;83.43
63946;BME280;50122;56.330;43.838;2022-10-16T21:03:37;102258.91;;;3.25;83.61
63946;BME280;50122;56.330;43.838;2022-10-16T21:06:05;102261.47;;;3.22;83.30
63946;BME280;50122;56.330;43.838;2022-10-16T21:08:38;102260.47;;;3.16;83.58
63946;BME280;50122;56.330;43.838;2022-10-16T21:11:16;102267.41;;;3.13;83.04
63946;BME280;50122;56.330;43.838;2022-10-16T21:13:47;102275.13;;;3.09;83.60
63946;BME280;50122;56.330;43.838;2022-10-16T21:16:14;102247.97;;;2.99;83.40
63946;BME280;50122;56.330;43.838;2022-10-16T21:18:41;102258.50;;;3.02;83.60
63946;BME280;50122;56.330;43.838;2022-10-16T21:21:21;102260.13;;;2.97;83.50
63946;BME280;50122;56.330;43.838;2022-10-16T21:23:49;102265.34;;;2.97;83.36
63946;BME280;50122;56.330;43.838;2022-10-16T21:26:18;102260.94;;;2.94;83.77
63946;BME280;50122;56.330;43.838;2022-10-16T21:28:48;102255.63;;;2.90;83.95
63946;BME280;50122;56.330;43.838;2022-10-16T21:31:17;102265.22;;;2.91;84.31
63946;BME280;50122;56.330;43.838;2022-10-16T21:33:48;102249.34;;;2.82;84.23
63946;BME280;50122;56.330;43.838;2022-10-16T21:36:26;102259.16;;;2.92;84.09
63946;BME280;50122;56.330;43.838;2022-10-16T21:38:55;102252.03;;;2.83;83.93
63946;BME280;50122;56.330;43.838;2022-10-16T21:41:26;102261.78;;;2.92;83.75
63946;BME280;50122;56.330;43.838;2022-10-16T21:43:55;102247.72;;;2.85;84.64
63946;BME280;50122;56.330;43.838;2022-10-16T21:46:24;102243.19;;;2.76;84.45
63946;BME280;50122;56.330;43.838;2022-10-16T21:48:55;102242.44;;;2.82;84.35
63946;BME280;50122;56.330;43.838;2022-10-16T21:51:29;102261.59;;;2.84;84.55
63946;BME280;50122;56.330;43.838;2022-10-16T21:54:00;102256.34;;;2.83;84.50
63946;BME280;50122;56.330;43.838;2022-10-16T21:56:27;102241.53;;;2.82;85.17
63946;BME280;50122;56.330;43.838;2022-10-16T21:58:54;102253.72;;;2.81;84.41
63946;BME280;50122;56.330;43.838;2022-10-16T22:01:23;102246.69;;;2.78;84.73
63946;BME280;50122;56.330;43.838;2022-10-16T22:03:50;102254.41;;;2.72;84.56
63946;BME280;50122;56.330;43.838;2022-10-16T22:06:19;102253.44;;;2.67;84.89
63946;BME280;50122;56.330;43.838;2022-10-16T22:08:49;102256.91;;;2.66;85.00
63946;BME280;50122;56.330;43.838;2022-10-16T22:11:20;102247.25;;;2.62;84.93
63946;BME280;50122;56.330;43.838;2022-10-16T22:13:50;102255.97;;;2.64;85.20
63946;BME280;50122;56.330;43.838;2022-10-16T22:16:24;102242.84;;;2.59;84.89
63946;BME280;50122;56.330;43.838;2022-10-16T22:18:53;102253.31;;;2.61;85.40
63946;BME280;50122;56.330;43.838;2022-10-16T22:21:20;102251.50;;;2.58;85.39
63946;BME280;50122;56.330;43.838;2022-10-16T22:23:46;102244.41;;;2.51;85.42
63946;BME280;50122;56.330;43.838;2022-10-16T22:26:16;102256.63;;;2.54;85.01
63946;BME280;50122;56.330;43.838;2022-10-16T22:28:43;102246.94;;;2.48;84.92
63946;BME280;50122;56.330;43.838;2022-10-16T22:31:12;102246.84;;;2.43;85.25
63946;BME280;50122;56.330;43.838;2022-10-16T22:33:40;102211.53;;;2.18;85.52
63946;BME280;50122;56.330;43.838;2022-10-16T22:36:09;102211.44;;;2.15;85.47
63946;BME280;50122;56.330;43.838;2022-10-16T22:38:37;102249.31;;;2.36;85.21
63946;BME280;50122;56.330;43.838;2022-10-16T22:41:06;102250.09;;;2.32;85.58
63946;BME280;50122;56.330;43.838;2022-10-16T22:43:38;102228.13;;;2.22;85.53
63946;BME280;50122;56.330;43.838;2022-10-16T22:46:07;102245.63;;;2.26;85.84
63946;BME280;50122;56.330;43.838;2022-10-16T22:48:35;102242.97;;;2.24;85.99
63946;BME280;50122;56.330;43.838;2022-10-16T22:51:05;102235.97;;;2.23;85.86
63946;BME280;50122;56.330;43.838;2022-10-16T22:53:32;102230.69;;;2.20;86.28
63946;BME280;50122;56.330;43.838;2022-10-16T22:55:59;102229.94;;;2.24;86.58
63946;BME280;50122;56.330;43.838;2022-10-16T22:58:26;102214.19;;;2.20;85.91
63946;BME280;50122;56.330;43.838;2022-10-16T23:00:53;102228.09;;;2.20;85.92
63946;BME280;50122;56.330;43.838;2022-10-16T23:03:21;102208.50;;;1.98;86.02
63946;BME280;50122;56.330;43.838;2022-10-16T23:05:47;102240.25;;;2.18;86.44
63946;BME280;50122;56.330;43.838;2022-10-16T23:08:14;102225.22;;;2.08;86.02
63946;BME280;50122;56.330;43.838;2022-10-16T23:10:43;102222.47;;;2.02;85.91
63946;BME280;50122;56.330;43.838;2022-10-16T23:13:11;102171.50;;;1.77;86.28
63946;BME280;50122;56.330;43.838;2022-10-16T23:15:39;102237.34;;;2.06;85.68
63946;BME280;50122;56.330;43.838;2022-10-16T23:18:06;102228.56;;;2.01;86.15
63946;BME280;50122;56.330;43.838;2022-10-16T23:20:33;102226.69;;;1.95;85.98
63946;BME280;50122;56.330;43.838;2022-10-16T23:23:00;102221.38;;;1.92;86.33
63946;BME280;50122;56.330;43.838;2022-10-16T23:25:27;102208.13;;;1.83;85.74
63946;BME280;50122;56.330;43.838;2022-10-16T23:27:55;102231.78;;;1.92;86.61
63946;BME280;50122;56.330;43.838;2022-10-16T23:30:21;102219.53;;;1.86;86.22
63946;BME280;50122;56.330;43.838;2022-10-16T23:32:48;102214.19;;;1.82;86.60
63946;BME280;50122;56.330;43.838;2022-10-16T23:35:15;102222.16;;;1.88;86.18
63946;BME280;50122;56.330;43.838;2022-10-16T23:37:41;102215.09;;;1.82;86.73
63946;BME280;50122;56.330;43.838;2022-10-16T23:40:08;102205.50;;;1.81;86.56
63946;BME280;50122;56.330;43.838;2022-10-16T23:42:35;102211.53;;;1.80;86.71
63946;BME280;50122;56.330;43.838;2022-10-16T23:45:03;102216.75;;;1.80;86.55
63946;BME280;50122;56.330;43.838;2022-10-16T23:47:30;102207.19;;;1.79;86.69
63946;BME280;50122;56.330;43.838;2022-10-16T23:49:56;102202.69;;;1.72;86.92
63946;BME280;50122;56.330;43.838;2022-10-16T23:52:23;102206.25;;;1.77;86.02
63946;BME280;50122;56.330;43.838;2022-10-16T23:54:49;102199.22;;;1.73;86.88
63946;BME280;50122;56.330;43.838;2022-10-16T23:57:16;102196.53;;;1.70;86.36
63946;BME280;50122;56.330;43.838;2022-10-16T23:59:43;102201.75;;;1.70;86.44
